createdAt,value
2023-03-27T00:00:25.280Z,530.50
2023-03-27T00:01:20.986Z,532.19
2023-03-27T00:02:16.229Z,534.32
2023-03-27T00:03:11.512Z,533.04
2023-03-27T00:04:07.653Z,533.89
2023-03-27T00:05:03.006Z,535.18
2023-03-27T00:05:58.014Z,531.34
2023-03-27T00:06:53.026Z,532.61
2023-03-27T00:07:49.051Z,532.61
2023-03-27T00:08:44.025Z,534.32
2023-03-27T00:09:39.504Z,533.47
2023-03-27T00:10:35.139Z,533.04
2023-03-27T00:11:30.328Z,532.61
2023-03-27T00:12:25.458Z,535.18
2023-03-27T00:13:21.835Z,536.90
2023-03-27T00:14:17.036Z,533.04
2023-03-27T00:15:13.061Z,531.34
2023-03-27T00:16:08.206Z,530.50
2023-03-27T00:17:03.252Z,533.89
2023-03-27T00:17:59.252Z,529.65
2023-03-27T00:18:54.507Z,528.39
2023-03-27T00:19:50.381Z,527.56
2023-03-27T00:20:45.545Z,529.65
2023-03-27T00:23:06.139Z,496.16
2023-03-27T00:24:01.152Z,493.58
2023-03-27T00:24:56.476Z,496.52
2023-03-27T00:25:51.450Z,500.62
2023-03-27T00:26:46.583Z,505.94
2023-03-27T00:27:41.585Z,508.26
2023-03-27T00:28:36.769Z,515.73
2023-03-27T00:29:31.884Z,514.53
2023-03-27T00:30:27.327Z,512.16
2023-03-27T00:31:22.241Z,510.98
2023-03-27T00:32:17.564Z,513.74
2023-03-27T00:33:12.665Z,518.94
2023-03-27T00:34:07.719Z,518.94
2023-03-27T00:35:02.853Z,516.92
2023-03-27T00:35:58.077Z,515.73
2023-03-27T00:36:53.149Z,516.92
2023-03-27T00:37:48.350Z,518.13
2023-03-27T00:38:43.487Z,518.94
2023-03-27T00:39:38.810Z,519.34
2023-03-27T00:40:33.725Z,520.56
2023-03-27T00:41:28.871Z,523.83
2023-03-27T00:42:24.002Z,523.83
2023-03-27T00:43:19.293Z,528.39
2023-03-27T00:44:14.300Z,527.56
2023-03-27T00:45:09.870Z,527.14
2023-03-27T00:46:04.787Z,530.50
2023-03-27T00:46:59.904Z,523.83
2023-03-27T00:47:54.902Z,523.42
2023-03-27T00:48:50.058Z,527.14
2023-03-27T00:49:45.371Z,524.24
2023-03-27T00:50:40.379Z,527.56
2023-03-27T00:51:35.616Z,522.60
2023-03-27T00:52:30.762Z,522.19
2023-03-27T00:53:25.895Z,522.19
2023-03-27T00:54:21.109Z,520.15
2023-03-27T00:55:16.104Z,518.94
2023-03-27T00:56:11.324Z,526.31
2023-03-27T00:57:06.484Z,520.56
2023-03-27T00:58:01.587Z,517.33
2023-03-27T00:58:56.755Z,515.33
2023-03-27T00:59:52.095Z,521.37
2023-03-27T01:00:47.088Z,520.15
2023-03-27T01:01:42.385Z,523.83
2023-03-27T01:02:37.553Z,525.07
2023-03-27T01:03:32.798Z,523.42
2023-03-27T01:04:27.743Z,524.24
2023-03-27T01:05:22.918Z,526.31
2023-03-27T01:06:18.059Z,524.65
2023-03-27T01:07:13.221Z,528.81
2023-03-27T01:08:08.336Z,526.31
2023-03-27T01:09:03.542Z,526.31
2023-03-27T01:09:58.863Z,531.77
2023-03-27T01:10:53.842Z,528.39
2023-03-27T01:11:49.026Z,533.04
2023-03-27T01:12:44.166Z,534.75
2023-03-27T01:13:39.432Z,535.61
2023-03-27T01:14:34.506Z,537.77
2023-03-27T01:15:29.656Z,539.07
2023-03-27T01:16:24.784Z,541.26
2023-03-27T01:17:19.915Z,541.26
2023-03-27T01:18:15.204Z,541.70
2023-03-27T01:19:10.374Z,541.26
2023-03-27T01:20:05.414Z,547.48
2023-03-27T01:21:00.525Z,548.83
2023-03-27T01:21:55.626Z,548.38
2023-03-27T01:22:50.748Z,552.01
2023-03-27T01:23:59.975Z,552.93
2023-03-27T01:24:42.278Z,555.23
2023-03-27T01:25:36.220Z,560.84
2023-03-27T01:26:35.716Z,560.84
2023-03-27T01:27:27.595Z,556.62
2023-03-27T01:28:21.680Z,552.93
2023-03-27T01:29:16.835Z,554.77
2023-03-27T01:30:12.004Z,556.62
2023-03-27T01:31:07.180Z,557.55
2023-03-27T01:32:02.299Z,554.77
2023-03-27T01:32:57.700Z,557.09
2023-03-27T01:33:52.606Z,558.49
2023-03-27T01:34:48.039Z,562.73
2023-03-27T01:35:44.020Z,567.03
2023-03-27T01:36:38.214Z,566.07
2023-03-27T01:37:33.315Z,570.43
2023-03-27T01:38:28.506Z,570.43
2023-03-27T01:39:23.610Z,568.48
2023-03-27T01:40:18.906Z,568.00
2023-03-27T01:41:13.924Z,567.03
2023-03-27T01:42:09.081Z,571.90
2023-03-27T01:43:04.273Z,570.92
2023-03-27T01:43:59.438Z,570.92
2023-03-27T01:44:54.865Z,569.46
2023-03-27T01:45:49.760Z,567.52
2023-03-27T01:46:44.914Z,562.25
2023-03-27T01:47:40.125Z,568.48
2023-03-27T01:48:35.127Z,568.00
2023-03-27T01:49:30.319Z,569.94
2023-03-27T01:50:25.741Z,562.73
2023-03-27T01:51:20.657Z,565.11
2023-03-27T01:52:15.786Z,563.68
2023-03-27T01:53:10.974Z,558.49
2023-03-27T01:54:06.123Z,558.02
2023-03-27T01:55:01.621Z,561.78
2023-03-27T01:55:56.487Z,564.63
2023-03-27T01:56:51.613Z,564.16
2023-03-27T01:57:49.315Z,568.97
2023-03-27T01:58:41.795Z,558.49
2023-03-27T01:59:37.093Z,550.19
2023-03-27T02:00:51.580Z,547.48
2023-03-27T02:01:28.357Z,540.82
2023-03-27T02:02:22.411Z,540.38
2023-03-27T02:03:17.566Z,530.50
2023-03-27T02:04:12.859Z,531.77
2023-03-27T02:05:07.881Z,523.42
2023-03-27T02:06:03.052Z,527.56
2023-03-27T02:06:58.183Z,527.56
2023-03-27T02:07:53.329Z,525.48
2023-03-27T02:08:48.499Z,521.37
2023-03-27T02:09:43.687Z,518.53
2023-03-27T02:10:38.946Z,517.73
2023-03-27T02:11:34.001Z,517.73
2023-03-27T02:12:29.113Z,514.93
2023-03-27T02:13:24.298Z,512.95
2023-03-27T02:14:19.598Z,512.95
2023-03-27T02:15:24.201Z,514.93
2023-03-27T02:16:10.727Z,512.95
2023-03-27T02:17:04.826Z,511.77
2023-03-27T02:17:59.967Z,509.42
2023-03-27T02:18:55.122Z,509.81
2023-03-27T02:19:50.538Z,506.71
2023-03-27T02:20:45.741Z,502.89
2023-03-27T02:21:40.779Z,503.27
2023-03-27T02:22:37.529Z,500.25
2023-03-27T02:23:31.115Z,499.13
2023-03-27T02:24:26.417Z,500.25
2023-03-27T02:25:21.437Z,491.40
2023-03-27T02:26:16.570Z,487.10
2023-03-27T02:27:11.930Z,481.12
2023-03-27T02:28:07.031Z,481.12
2023-03-27T02:29:02.199Z,479.74
2023-03-27T02:29:57.576Z,478.70
2023-03-27T02:31:06.934Z,479.05
2023-03-27T02:31:48.856Z,482.51
2023-03-27T02:32:43.230Z,484.97
2023-03-27T02:33:38.315Z,485.68
2023-03-27T02:34:33.716Z,486.03
2023-03-27T02:35:28.830Z,488.52
2023-03-27T02:36:23.975Z,488.88
2023-03-27T02:37:19.129Z,492.49
2023-03-27T02:38:14.275Z,492.86
2023-03-27T02:39:09.604Z,493.58
2023-03-27T02:40:04.641Z,494.32
2023-03-27T02:40:59.906Z,490.32
2023-03-27T02:41:54.930Z,491.77
2023-03-27T02:42:50.033Z,493.95
2023-03-27T02:43:45.545Z,502.13
2023-03-27T02:44:46.173Z,509.42
2023-03-27T02:45:36.801Z,516.92
2023-03-27T02:46:30.958Z,521.37
2023-03-27T02:47:26.154Z,525.89
2023-03-27T02:48:21.112Z,534.75
2023-03-27T02:49:16.597Z,538.64
2023-03-27T02:50:11.439Z,544.80
2023-03-27T02:51:06.742Z,544.80
2023-03-27T02:52:01.785Z,543.91
2023-03-27T02:52:56.934Z,538.20
2023-03-27T02:53:52.265Z,541.70
2023-03-27T02:54:47.272Z,547.48
2023-03-27T02:55:42.392Z,551.56
2023-03-27T02:56:37.579Z,554.31
2023-03-27T02:57:32.699Z,568.00
2023-03-27T02:58:28.023Z,567.52
2023-03-27T02:59:22.888Z,574.36
2023-03-27T03:00:18.050Z,570.43
2023-03-27T03:01:13.392Z,576.84
2023-03-27T03:02:08.439Z,575.35
2023-03-27T03:03:03.714Z,571.41
2023-03-27T03:03:59.064Z,577.34
2023-03-27T03:04:54.027Z,577.34
2023-03-27T03:05:49.183Z,574.36
2023-03-27T03:06:44.325Z,573.37
2023-03-27T03:07:39.491Z,572.88
2023-03-27T03:08:34.792Z,581.37
2023-03-27T03:09:29.847Z,577.84
2023-03-27T03:10:24.981Z,576.84
2023-03-27T03:11:20.290Z,578.35
2023-03-27T03:12:15.326Z,582.90
2023-03-27T03:13:10.503Z,584.94
2023-03-27T03:14:05.662Z,584.94
2023-03-27T03:15:00.839Z,589.08
2023-03-27T03:15:55.968Z,594.86
2023-03-27T03:16:51.246Z,582.39
2023-03-27T03:17:46.367Z,559.89
2023-03-27T03:18:41.725Z,551.10
2023-03-27T03:19:36.708Z,544.35
2023-03-27T03:20:31.783Z,539.07
2023-03-27T03:21:27.070Z,544.35
2023-03-27T03:22:22.129Z,554.77
2023-03-27T03:23:17.262Z,557.55
2023-03-27T03:24:12.442Z,570.43
2023-03-27T03:25:07.591Z,570.43
2023-03-27T03:26:02.729Z,578.35
2023-03-27T03:26:57.885Z,585.46
2023-03-27T03:27:53.039Z,458.62
2023-03-27T03:29:00.707Z,445.74
2023-03-27T03:29:44.350Z,474.28
2023-03-27T03:30:38.480Z,480.77
2023-03-27T03:31:33.746Z,500.62
2023-03-27T03:32:28.788Z,522.60
2023-03-27T03:33:24.098Z,534.32
2023-03-27T03:34:19.227Z,542.14
2023-03-27T03:35:14.319Z,552.01
2023-03-27T03:36:09.457Z,561.31
2023-03-27T03:37:04.490Z,574.36
2023-03-27T03:37:59.817Z,585.46
2023-03-27T03:38:54.841Z,590.12
2023-03-27T03:39:50.110Z,597.52
2023-03-27T03:40:45.268Z,600.21
2023-03-27T03:41:40.398Z,600.75
2023-03-27T03:42:35.453Z,601.84
2023-03-27T03:43:30.653Z,604.02
2023-03-27T03:44:25.748Z,606.76
2023-03-27T03:45:21.014Z,611.21
2023-03-27T03:46:16.076Z,617.44
2023-03-27T03:47:11.287Z,600.75
2023-03-27T03:48:06.748Z,539.51
2023-03-27T03:49:01.636Z,533.47
2023-03-27T03:49:56.809Z,552.93
2023-03-27T03:50:52.092Z,543.91
2023-03-27T03:51:47.219Z,551.56
2023-03-27T03:52:43.470Z,561.78
2023-03-27T03:53:37.447Z,565.11
2023-03-27T03:54:32.463Z,568.97
2023-03-27T03:55:27.674Z,574.86
2023-03-27T03:56:22.806Z,579.85
2023-03-27T03:57:18.056Z,582.90
2023-03-27T03:58:13.302Z,589.60
2023-03-27T03:59:08.348Z,589.60
2023-03-27T04:00:03.520Z,595.39
2023-03-27T04:00:58.669Z,601.84
2023-03-27T04:01:53.963Z,607.32
2023-03-27T04:02:49.194Z,608.42
2023-03-27T04:03:44.183Z,610.65
2023-03-27T04:04:39.250Z,606.21
2023-03-27T04:05:34.395Z,608.42
2023-03-27T04:06:29.571Z,614.03
2023-03-27T04:07:24.716Z,611.21
2023-03-27T04:08:19.921Z,608.98
2023-03-27T04:09:15.071Z,607.87
2023-03-27T04:10:10.273Z,608.98
2023-03-27T04:11:05.417Z,604.56
2023-03-27T04:12:00.704Z,612.90
2023-03-27T04:12:55.911Z,607.32
2023-03-27T04:13:50.950Z,605.11
2023-03-27T04:14:46.128Z,608.42
2023-03-27T04:15:41.320Z,613.46
2023-03-27T04:16:36.451Z,615.16
2023-03-27T04:17:31.898Z,609.54
2023-03-27T04:18:26.849Z,612.34
2023-03-27T04:19:21.992Z,614.03
2023-03-27T04:20:17.145Z,599.67
2023-03-27T04:21:12.340Z,596.99
2023-03-27T04:22:07.645Z,598.06
2023-03-27T04:23:02.876Z,592.74
2023-03-27T04:23:57.750Z,600.21
2023-03-27T04:24:52.978Z,602.92
2023-03-27T04:25:48.128Z,608.42
2023-03-27T04:26:43.326Z,611.21
2023-03-27T04:27:38.564Z,614.03
2023-03-27T04:28:33.588Z,613.46
2023-03-27T04:29:28.835Z,622.05
2023-03-27T04:30:23.913Z,630.28
2023-03-27T04:31:19.124Z,627.90
2023-03-27T04:32:14.290Z,635.68
2023-03-27T04:33:09.549Z,638.73
2023-03-27T04:34:04.573Z,629.68
2023-03-27T04:34:59.761Z,626.13
2023-03-27T04:36:07.439Z,605.11
2023-03-27T04:36:51.197Z,608.42
2023-03-27T04:37:45.577Z,614.59
2023-03-27T04:38:40.610Z,619.16
2023-03-27T04:39:35.779Z,627.31
2023-03-27T04:40:30.907Z,633.87
2023-03-27T04:41:26.066Z,623.79
2023-03-27T04:42:21.375Z,625.55
2023-03-27T04:43:16.639Z,626.13
2023-03-27T04:44:11.539Z,612.34
2023-03-27T04:45:06.878Z,583.92
2023-03-27T04:46:01.899Z,513.74
2023-03-27T04:46:57.174Z,482.86
2023-03-27T04:47:52.433Z,479.39
2023-03-27T04:48:47.595Z,483.21
2023-03-27T04:49:42.621Z,498.01
2023-03-27T04:50:37.944Z,519.34
2023-03-27T04:51:32.939Z,546.14
2023-03-27T04:52:28.422Z,561.78
2023-03-27T04:53:23.363Z,574.86
2023-03-27T04:54:18.566Z,549.29
2023-03-27T04:55:13.760Z,540.38
2023-03-27T04:56:09.000Z,553.39
2023-03-27T04:57:04.246Z,565.59
2023-03-27T04:57:59.480Z,579.85
2023-03-27T04:58:54.692Z,580.86
2023-03-27T04:59:49.947Z,587.00
2023-03-27T05:00:45.202Z,592.74
2023-03-27T05:01:40.453Z,593.27
2023-03-27T05:02:36.081Z,592.21
2023-03-27T05:03:31.107Z,605.11
2023-03-27T05:04:26.019Z,599.67
2023-03-27T05:05:21.303Z,612.90
2023-03-27T05:06:16.634Z,622.63
2023-03-27T05:07:11.879Z,620.89
2023-03-27T05:08:06.878Z,626.72
2023-03-27T05:09:02.155Z,630.87
2023-03-27T05:09:57.359Z,631.47
2023-03-27T05:10:52.652Z,645.53
2023-03-27T05:11:47.877Z,647.41
2023-03-27T05:12:43.552Z,648.67
2023-03-27T05:13:38.373Z,651.20
2023-03-27T05:14:33.642Z,655.69
2023-03-27T05:15:29.001Z,646.78
2023-03-27T05:16:24.337Z,639.96
2023-03-27T05:17:19.530Z,618.01
2023-03-27T05:18:14.620Z,566.55
2023-03-27T05:19:09.917Z,568.00
2023-03-27T05:20:05.216Z,580.86
2023-03-27T05:21:00.441Z,582.90
2023-03-27T05:21:55.554Z,596.45
2023-03-27T05:22:50.790Z,608.42
2023-03-27T05:23:45.723Z,612.90
2023-03-27T05:24:40.712Z,624.38
2023-03-27T05:25:35.799Z,611.77
2023-03-27T05:26:30.850Z,487.45
2023-03-27T05:27:25.993Z,468.28
2023-03-27T05:28:21.117Z,473.60
2023-03-27T05:29:16.147Z,495.79
2023-03-27T05:30:11.108Z,529.65
2023-03-27T05:31:06.390Z,550.19
2023-03-27T05:32:01.652Z,569.46
2023-03-27T05:32:56.800Z,575.35
2023-03-27T05:33:51.684Z,594.33
2023-03-27T05:34:46.757Z,610.09
2023-03-27T05:35:41.838Z,632.67
2023-03-27T05:36:36.927Z,639.96
2023-03-27T05:37:32.011Z,665.50
2023-03-27T05:38:27.330Z,676.30
2023-03-27T05:39:22.087Z,693.17
2023-03-27T05:40:17.341Z,690.30
2023-03-27T05:41:15.322Z,686.04
2023-03-27T05:42:10.265Z,699.72
2023-03-27T05:43:05.496Z,699.72
2023-03-27T05:44:00.485Z,697.52
2023-03-27T05:44:55.440Z,707.89
2023-03-27T05:45:50.613Z,712.43
2023-03-27T05:46:45.599Z,703.41
2023-03-27T05:47:40.772Z,670.18
2023-03-27T05:48:35.795Z,674.93
2023-03-27T05:49:32.418Z,659.58
2023-03-27T05:50:25.884Z,666.83
2023-03-27T05:51:20.969Z,663.52
2023-03-27T05:52:15.966Z,674.93
2023-03-27T05:53:11.221Z,682.53
2023-03-27T05:54:06.174Z,683.93
2023-03-27T05:55:01.606Z,694.62
2023-03-27T05:56:02.971Z,686.75
2023-03-27T05:56:53.295Z,698.26
2023-03-27T05:57:47.925Z,704.90
2023-03-27T05:58:43.001Z,729.58
2023-03-27T05:59:38.301Z,730.38
2023-03-27T06:00:33.717Z,711.67
2023-03-27T06:01:29.050Z,682.53
2023-03-27T06:02:24.951Z,677.68
2023-03-27T06:03:20.208Z,696.07
2023-03-27T06:04:15.458Z,693.90
2023-03-27T06:05:10.785Z,703.41
2023-03-27T06:06:06.096Z,693.17
2023-03-27T06:07:01.432Z,706.39
2023-03-27T06:07:56.531Z,679.06
2023-03-27T06:08:51.674Z,706.39
2023-03-27T06:09:46.748Z,734.40
2023-03-27T06:10:41.802Z,611.77
2023-03-27T06:11:36.965Z,591.69
2023-03-27T06:12:32.012Z,583.41
2023-03-27T06:13:27.282Z,607.87
2023-03-27T06:14:22.146Z,600.75
2023-03-27T06:15:17.148Z,622.63
2023-03-27T06:16:12.210Z,574.36
2023-03-27T06:17:07.244Z,588.55
2023-03-27T06:18:02.589Z,607.32
2023-03-27T06:18:59.585Z,630.87
2023-03-27T06:19:54.638Z,466.64
2023-03-27T06:20:49.636Z,462.44
2023-03-27T06:21:44.809Z,514.53
2023-03-27T06:22:39.958Z,574.36
2023-03-27T06:23:34.832Z,595.39
2023-03-27T06:24:29.972Z,620.89
2023-03-27T06:25:25.011Z,646.16
2023-03-27T06:26:20.046Z,684.63
2023-03-27T06:27:15.063Z,647.41
2023-03-27T06:28:10.620Z,444.26
2023-03-27T06:29:08.597Z,450.26
2023-03-27T06:30:43.414Z,510.98
2023-03-27T06:31:38.842Z,420.71
2023-03-27T06:32:34.082Z,479.74
2023-03-27T06:33:29.378Z,536.47
2023-03-27T06:34:24.850Z,577.84
2023-03-27T06:35:20.145Z,608.42
2023-03-27T06:36:15.570Z,635.68
2023-03-27T06:37:10.833Z,665.50
2023-03-27T06:38:06.459Z,688.17
2023-03-27T06:39:01.656Z,648.67
2023-03-27T06:39:57.209Z,655.04
2023-03-27T06:40:52.703Z,668.84
2023-03-27T06:41:47.908Z,697.52
2023-03-27T06:42:43.446Z,747.57
2023-03-27T06:43:38.575Z,765.92
2023-03-27T06:44:33.841Z,775.26
2023-03-27T06:45:29.346Z,769.90
2023-03-27T06:46:32.204Z,791.35
2023-03-27T06:47:21.274Z,799.88
2023-03-27T06:48:21.582Z,809.58
2023-03-27T06:49:12.334Z,832.29
2023-03-27T06:50:06.290Z,852.49
2023-03-27T06:51:01.738Z,873.12
2023-03-27T06:51:57.175Z,880.03
2023-03-27T06:52:52.384Z,840.15
2023-03-27T06:53:47.814Z,851.40
2023-03-27T06:54:43.126Z,865.20
2023-03-27T06:55:38.302Z,847.62
2023-03-27T06:56:33.837Z,865.76
2023-03-27T06:57:29.060Z,851.95
2023-03-27T06:58:24.661Z,875.41
2023-03-27T06:59:19.826Z,871.98
2023-03-27T07:00:15.182Z,897.78
2023-03-27T07:01:10.693Z,906.93
2023-03-27T07:02:06.048Z,890.00
2023-03-27T07:03:01.393Z,888.22
2023-03-27T07:03:57.084Z,919.42
2023-03-27T07:05:01.937Z,914.38
2023-03-27T07:05:48.618Z,931.61
2023-03-27T07:06:42.928Z,961.12
2023-03-27T07:07:41.308Z,939.48
2023-03-27T07:08:33.910Z,897.78
2023-03-27T07:09:29.378Z,873.69
2023-03-27T07:10:24.526Z,898.99
2023-03-27T07:11:20.226Z,920.69
2023-03-27T07:12:15.362Z,940.14
2023-03-27T07:13:10.666Z,929.02
2023-03-27T07:14:06.335Z,915.64
2023-03-27T07:15:01.361Z,929.67
2023-03-27T07:15:56.678Z,898.99
2023-03-27T07:18:16.463Z,921.33
2023-03-27T07:19:11.512Z,920.69
2023-03-27T07:20:07.027Z,897.78
2023-03-27T07:21:02.418Z,874.26
2023-03-27T07:21:57.775Z,870.27
2023-03-27T07:22:54.469Z,890.00
2023-03-27T07:23:48.667Z,846.01
2023-03-27T07:24:44.001Z,830.22
2023-03-27T07:25:39.432Z,809.09
2023-03-27T07:26:34.702Z,804.70
2023-03-27T07:27:29.986Z,805.19
2023-03-27T07:28:25.652Z,788.08
2023-03-27T07:29:20.785Z,790.88
2023-03-27T07:30:16.033Z,803.73
2023-03-27T07:31:29.279Z,826.11
2023-03-27T07:32:09.552Z,817.01
2023-03-27T07:33:02.115Z,850.32
2023-03-27T07:33:57.647Z,844.40
2023-03-27T07:34:52.743Z,843.87
2023-03-27T07:35:48.057Z,836.99
2023-03-27T07:36:43.451Z,850.32
2023-03-27T07:37:38.991Z,850.32
2023-03-27T07:38:34.462Z,836.47
2023-03-27T07:39:29.659Z,842.80
2023-03-27T07:40:36.870Z,857.97
2023-03-27T07:41:21.373Z,839.62
2023-03-27T07:42:15.703Z,810.57
2023-03-27T07:43:11.100Z,820.53
2023-03-27T07:44:06.639Z,832.29
2023-03-27T07:45:04.015Z,846.54
2023-03-27T07:45:57.229Z,828.16
2023-03-27T07:46:52.585Z,841.21
2023-03-27T07:47:47.816Z,844.94
2023-03-27T07:48:43.260Z,833.33
2023-03-27T07:49:39.686Z,815.02
2023-03-27T07:50:34.009Z,837.52
2023-03-27T07:51:29.289Z,821.03
2023-03-27T07:52:24.740Z,831.26
2023-03-27T07:53:32.757Z,814.02
2023-03-27T07:54:16.715Z,830.74
2023-03-27T07:55:10.936Z,835.42
2023-03-27T07:56:06.419Z,846.01
2023-03-27T07:57:01.793Z,856.32
2023-03-27T07:58:01.659Z,828.16
2023-03-27T07:58:53.491Z,784.83
2023-03-27T07:59:47.893Z,769.01
2023-03-27T08:00:43.515Z,755.52
2023-03-27T08:01:38.718Z,743.40
2023-03-27T08:02:34.066Z,740.93
2023-03-27T08:03:29.818Z,727.98
2023-03-27T08:04:25.259Z,641.19
2023-03-27T08:05:20.396Z,648.04
2023-03-27T08:06:15.677Z,662.86
2023-03-27T08:07:11.123Z,698.26
2023-03-27T08:08:06.404Z,696.07
2023-03-27T08:09:02.910Z,704.90
2023-03-27T08:09:57.267Z,713.19
2023-03-27T08:10:52.780Z,719.34
2023-03-27T08:11:48.039Z,735.21
2023-03-27T08:12:43.561Z,727.98
2023-03-27T08:13:39.051Z,731.98
2023-03-27T08:14:34.464Z,735.21
2023-03-27T08:15:29.637Z,749.25
2023-03-27T08:16:25.115Z,765.92
2023-03-27T08:17:22.132Z,797.97
2023-03-27T08:18:15.877Z,789.94
2023-03-27T08:19:11.465Z,806.65
2023-03-27T08:20:06.561Z,818.52
2023-03-27T08:21:01.900Z,803.73
2023-03-27T08:21:57.443Z,811.55
2023-03-27T08:22:52.825Z,808.60
2023-03-27T08:23:48.119Z,778.43
2023-03-27T08:24:43.526Z,760.68
2023-03-27T08:25:38.916Z,767.68
2023-03-27T08:26:34.191Z,764.17
2023-03-27T08:27:29.683Z,769.90
2023-03-27T08:28:25.100Z,757.66
2023-03-27T08:29:20.632Z,723.25
2023-03-27T08:30:16.883Z,723.25
2023-03-27T08:31:11.205Z,738.46
2023-03-27T08:32:07.457Z,785.29
2023-03-27T08:33:01.903Z,822.04
2023-03-27T08:33:57.273Z,830.22
2023-03-27T08:34:52.620Z,866.88
2023-03-27T08:35:48.074Z,834.38
2023-03-27T08:36:43.351Z,837.52
2023-03-27T08:37:38.748Z,861.85
2023-03-27T08:38:34.362Z,867.45
2023-03-27T08:39:29.556Z,881.19
2023-03-27T08:40:24.913Z,880.03
2023-03-27T08:41:20.180Z,883.52
2023-03-27T08:42:17.176Z,903.86
2023-03-27T08:43:11.065Z,891.78
2023-03-27T08:44:06.712Z,796.06
2023-03-27T08:45:01.891Z,693.90
2023-03-27T08:45:57.473Z,715.49
2023-03-27T08:46:52.856Z,727.98
2023-03-27T08:47:48.197Z,756.37
2023-03-27T08:48:43.674Z,757.23
2023-03-27T08:49:38.867Z,761.99
2023-03-27T08:50:34.237Z,788.08
2023-03-27T08:51:29.515Z,806.16
2023-03-27T08:52:25.095Z,842.80
2023-03-27T08:53:20.594Z,880.61
2023-03-27T08:54:15.728Z,888.82
2023-03-27T08:55:11.283Z,893.57
2023-03-27T08:56:06.595Z,888.82
2023-03-27T08:57:02.063Z,884.69
2023-03-27T08:57:57.334Z,915.01
2023-03-27T08:58:52.957Z,945.47
2023-03-27T08:59:48.125Z,955.62
2023-03-27T09:00:43.453Z,966.69
2023-03-27T09:01:38.991Z,991.09
2023-03-27T09:02:34.510Z,1023.77
2023-03-27T09:03:29.962Z,995.53
2023-03-27T09:04:24.981Z,1015.21
2023-03-27T09:05:20.329Z,1017.53
2023-03-27T09:06:15.803Z,1032.48
2023-03-27T09:07:11.170Z,1042.16
2023-03-27T09:08:06.568Z,978.02
2023-03-27T09:09:01.930Z,980.18
2023-03-27T09:09:57.225Z,968.79
2023-03-27T09:10:52.642Z,953.57
2023-03-27T09:11:48.123Z,891.78
2023-03-27T09:12:43.542Z,869.71
2023-03-27T09:13:38.881Z,875.41
2023-03-27T09:14:34.353Z,644.91
2023-03-27T09:15:29.578Z,649.93
2023-03-27T09:16:24.931Z,701.19
2023-03-27T09:17:20.279Z,763.73
2023-03-27T09:18:15.660Z,805.67
2023-03-27T09:19:11.200Z,818.52
2023-03-27T09:20:06.366Z,856.32
2023-03-27T09:21:01.796Z,874.26
2023-03-27T09:21:57.068Z,921.96
2023-03-27T09:22:52.715Z,851.40
2023-03-27T09:23:48.119Z,861.85
2023-03-27T09:24:43.370Z,896.58
2023-03-27T09:25:38.690Z,906.31
2023-03-27T09:26:34.134Z,888.82
2023-03-27T09:27:29.536Z,884.11
2023-03-27T09:28:25.039Z,820.03
2023-03-27T09:29:20.662Z,773.91
2023-03-27T09:30:15.809Z,705.64
2023-03-27T09:31:11.180Z,735.21
2023-03-27T09:32:06.478Z,782.53
2023-03-27T09:33:01.967Z,821.54
2023-03-27T09:33:57.251Z,801.32
2023-03-27T09:34:52.546Z,839.62
2023-03-27T09:35:47.925Z,853.58
2023-03-27T09:36:43.246Z,843.87
2023-03-27T09:37:38.730Z,881.19
2023-03-27T09:38:33.919Z,902.64
2023-03-27T09:39:28.840Z,926.44
2023-03-27T09:40:24.051Z,930.31
2023-03-27T09:41:19.053Z,937.50
2023-03-27T09:42:14.124Z,859.07
2023-03-27T09:43:09.198Z,839.09
2023-03-27T09:44:04.191Z,775.71
2023-03-27T09:44:59.238Z,787.15
2023-03-27T09:45:54.444Z,832.29
2023-03-27T09:46:49.345Z,890.00
2023-03-27T09:47:44.292Z,944.13
2023-03-27T09:48:39.317Z,1006.79
2023-03-27T09:49:34.517Z,1059.52
2023-03-27T09:50:29.815Z,1098.77
2023-03-27T09:51:25.159Z,1144.94
2023-03-27T09:52:20.957Z,1151.85
2023-03-27T09:53:16.403Z,1228.15
2023-03-27T09:54:12.234Z,1310.11
2023-03-27T09:55:07.428Z,1443.24
2023-03-27T09:56:03.431Z,1507.62
2023-03-27T09:56:58.635Z,1577.08
2023-03-27T09:57:54.091Z,1673.98
2023-03-27T09:58:49.472Z,1724.81
2023-03-27T09:59:45.175Z,1868.44
2023-03-27T10:00:40.487Z,1934.78
2023-03-27T10:01:35.537Z,1960.35
2023-03-27T10:02:30.540Z,1920.86
2023-03-27T10:03:25.675Z,1885.59
2023-03-27T10:04:20.752Z,1872.37
2023-03-27T10:05:16.036Z,1746.24
2023-03-27T10:06:10.925Z,1796.77
2023-03-27T10:07:05.943Z,1909.87
2023-03-27T10:08:03.091Z,1909.87
2023-03-27T10:08:58.127Z,1845.20
2023-03-27T10:09:53.414Z,1850.31
2023-03-27T10:10:48.201Z,1869.75
2023-03-27T10:11:43.323Z,1919.48
2023-03-27T10:12:38.399Z,1973.39
2023-03-27T10:13:33.494Z,1995.52
2023-03-27T10:14:28.545Z,2061.78
2023-03-27T10:15:23.734Z,2047.55
2023-03-27T10:16:18.797Z,2095.76
2023-03-27T10:17:13.917Z,2168.97
2023-03-27T10:18:08.906Z,2146.30
2023-03-27T10:19:03.958Z,2170.73
2023-03-27T10:19:59.002Z,2199.34
2023-03-27T10:20:54.556Z,1997.01
2023-03-27T10:21:49.976Z,1854.17
2023-03-27T10:22:45.770Z,1894.96
2023-03-27T10:23:41.325Z,1971.94
2023-03-27T10:24:44.531Z,1880.28
2023-03-27T10:25:33.327Z,1801.62
2023-03-27T10:26:28.305Z,1977.78
2023-03-27T10:27:23.748Z,2004.51
2023-03-27T10:28:19.662Z,1933.38
2023-03-27T10:29:14.986Z,1836.31
2023-03-27T10:30:11.038Z,1901.71
2023-03-27T10:31:06.105Z,2010.54
2023-03-27T10:32:01.695Z,2110.67
2023-03-27T10:32:57.133Z,2074.59
2023-03-27T10:33:53.444Z,2137.71
2023-03-27T10:34:49.068Z,2291.85
2023-03-27T10:35:44.836Z,2574.74
2023-03-27T10:36:40.300Z,2813.49
2023-03-27T10:37:35.805Z,2819.43
2023-03-27T10:38:31.437Z,2988.25
2023-03-27T10:39:26.945Z,3022.07
2023-03-27T10:40:22.855Z,3084.92
2023-03-27T10:41:27.881Z,3150.44
2023-03-27T10:42:14.540Z,3449.61
2023-03-27T10:43:10.611Z,3718.66
2023-03-27T10:44:04.815Z,3647.54
2023-03-27T10:45:00.589Z,3503.94
2023-03-27T10:45:56.659Z,3687.84
2023-03-27T10:46:52.088Z,3449.61
2023-03-27T10:47:47.954Z,3485.64
2023-03-27T10:48:43.479Z,3375.47
2023-03-27T10:49:38.803Z,3339.59
2023-03-27T10:50:34.905Z,3481.09
2023-03-27T10:51:39.349Z,3652.53
2023-03-27T10:52:27.264Z,3687.84
2023-03-27T10:53:21.677Z,3723.85
2023-03-27T10:54:17.038Z,3985.07
2023-03-27T10:55:13.477Z,4198.11
2023-03-27T10:56:08.658Z,4278.85
2023-03-27T10:57:04.081Z,4521.59
2023-03-27T10:58:00.367Z,4832.58
2023-03-27T10:58:55.860Z,5000.00
2023-03-27T10:59:51.700Z,5134.62
2023-03-27T11:00:47.117Z,5154.44
2023-03-27T11:01:42.651Z,5071.23
2023-03-27T11:02:38.348Z,4944.44
2023-03-27T11:03:33.752Z,4939.87
2023-03-27T11:04:29.453Z,2918.03
2023-03-27T11:05:25.024Z,3392.63
2023-03-27T11:06:20.350Z,4000.00
2023-03-27T11:07:16.429Z,4045.46
2023-03-27T11:08:11.741Z,3920.71
2023-03-27T11:09:07.192Z,3765.87
2023-03-27T11:10:03.525Z,4258.37
2023-03-27T11:10:59.101Z,4548.55
2023-03-27T11:11:54.884Z,5090.56
2023-03-27T11:12:50.208Z,5533.68
2023-03-27T11:13:45.784Z,5848.85
2023-03-27T11:14:41.071Z,5946.55
2023-03-27T11:15:36.835Z,5692.96
2023-03-27T11:16:33.060Z,5674.81
2023-03-27T11:17:29.088Z,5766.74
2023-03-27T11:18:24.266Z,5868.13
2023-03-27T11:19:19.623Z,5493.83
2023-03-27T11:20:15.125Z,4972.07
2023-03-27T11:21:11.040Z,5245.58
2023-03-27T11:22:06.445Z,5361.45
2023-03-27T11:23:02.183Z,5189.50
2023-03-27T11:23:57.810Z,4738.24
2023-03-27T11:24:53.074Z,4676.01
2023-03-27T11:25:48.988Z,4858.96
2023-03-27T11:26:44.496Z,4953.62
2023-03-27T11:27:39.845Z,3682.76
2023-03-27T11:28:36.287Z,3883.64
2023-03-27T11:29:31.821Z,4251.59